sensor_id;sensor_type;location;lat;lon;timestamp;temperature;humidity
35796;DHT22;21916;52.428;13.302;2022-10-31T00:00:46;12.20;99.90
35796;DHT22;21916;52.428;13.302;2022-10-31T00:03:12;12.20;99.90
35796;DHT22;21916;52.428;13.302;2022-10-31T00:05:47;12.10;99.90
35796;DHT22;21916;52.428;13.302;2022-10-31T00:08:14;12.00;99.90
35796;DHT22;21916;52.428;13.302;2022-10-31T00:10:40;12.10;99.90
35796;DHT22;21916;52.428;13.302;2022-10-31T00:13:08;12.00;99.90
35796;DHT22;21916;52.428;13.302;2022-10-31T00:15:35;11.90;99.90
35796;DHT22;21916;52.428;13.302;2022-10-31T00:18:01;12.00;99.90
35796;DHT22;21916;52.428;13.302;2022-10-31T00:20:27;11.80;99.90
35796;DHT22;21916;52.428;13.302;2022-10-31T00:22:57;11.90;99.90
35796;DHT22;21916;52.428;13.302;2022-10-31T00:25:23;11.90;99.90
35796;DHT22;21916;52.428;13.302;2022-10-31T00:27:49;12.00;99.90
35796;DHT22;21916;52.428;13.302;2022-10-31T00:30:15;11.90;99.90
35796;DHT22;21916;52.428;13.302;2022-10-31T00:32:41;11.80;99.90
35796;DHT22;21916;52.428;13.302;2022-10-31T00:35:07;11.80;99.90
35796;DHT22;21916;52.428;13.302;2022-10-31T00:37:33;11.80;99.90
35796;DHT22;21916;52.428;13.302;2022-10-31T00:39:58;11.70;99.90
35796;DHT22;21916;52.428;13.302;2022-10-31T00:42:24;11.60;99.90
35796;DHT22;21916;52.428;13.302;2022-10-31T00:44:51;11.50;99.90
35796;DHT22;21916;52.428;13.302;2022-10-31T00:47:17;11.50;99.90
35796;DHT22;21916;52.428;13.302;2022-10-31T00:49:45;11.50;99.90
35796;DHT22;21916;52.428;13.302;2022-10-31T00:52:12;11.50;99.90
35796;DHT22;21916;52.428;13.302;2022-10-31T00:54:38;11.50;99.90
35796;DHT22;21916;52.428;13.302;2022-10-31T00:57:03;11.40;99.90
35796;DHT22;21916;52.428;13.302;2022-10-31T00:59:30;11.40;99.90
35796;DHT22;21916;52.428;13.302;2022-10-31T01:01:56;11.40;99.90
35796;DHT22;21916;52.428;13.302;2022-10-31T01:04:22;11.30;99.90
35796;DHT22;21916;52.428;13.302;2022-10-31T01:06:50;11.30;99.90
35796;DHT22;21916;52.428;13.302;2022-10-31T01:09:16;11.30;99.90
35796;DHT22;21916;52.428;13.302;2022-10-31T01:11:41;11.30;99.90
35796;DHT22;21916;52.428;13.302;2022-10-31T01:14:09;11.50;99.90
35796;DHT22;21916;52.428;13.302;2022-10-31T01:16:36;11.30;99.90
35796;DHT22;21916;52.428;13.302;2022-10-31T01:19:03;11.40;99.90
35796;DHT22;21916;52.428;13.302;2022-10-31T01:21:29;11.40;99.90
35796;DHT22;21916;52.428;13.302;2022-10-31T01:23:59;11.40;99.90
35796;DHT22;21916;52.428;13.302;2022-10-31T01:26:31;11.40;99.90
35796;DHT22;21916;52.428;13.302;2022-10-31T01:29:01;11.40;99.90
35796;DHT22;21916;52.428;13.302;2022-10-31T01:31:33;11.40;99.90
35796;DHT22;21916;52.428;13.302;2022-10-31T01:33:59;11.40;99.90
35796;DHT22;21916;52.428;13.302;2022-10-31T01:36:27;11.40;99.90
35796;DHT22;21916;52.428;13.302;2022-10-31T01:38:57;11.40;99.90
35796;DHT22;21916;52.428;13.302;2022-10-31T01:41:27;11.30;99.90
35796;DHT22;21916;52.428;13.302;2022-10-31T01:43:55;11.30;99.90
35796;DHT22;21916;52.428;13.302;2022-10-31T01:46:43;11.40;99.90
35796;DHT22;21916;52.428;13.302;2022-10-31T01:52:23;11.20;99.90
35796;DHT22;21916;52.428;13.302;2022-10-31T01:54:59;11.20;99.90
35796;DHT22;21916;52.428;13.302;2022-10-31T01:57:31;11.20;99.90
35796;DHT22;21916;52.428;13.302;2022-10-31T02:00:04;11.10;99.90
35796;DHT22;21916;52.428;13.302;2022-10-31T02:02:39;11.10;99.90
35796;DHT22;21916;52.428;13.302;2022-10-31T02:05:09;11.10;99.90
35796;DHT22;21916;52.428;13.302;2022-10-31T02:10:13;11.10;99.90
35796;DHT22;21916;52.428;13.302;2022-10-31T02:12:40;11.10;99.90
35796;DHT22;21916;52.428;13.302;2022-10-31T02:15:07;11.10;99.90
35796;DHT22;21916;52.428;13.302;2022-10-31T02:17:34;11.00;99.90
35796;DHT22;21916;52.428;13.302;2022-10-31T02:20:16;11.10;99.90
35796;DHT22;21916;52.428;13.302;2022-10-31T02:33:37;11.00;99.90
35796;DHT22;21916;52.428;13.302;2022-10-31T02:36:16;11.00;99.90
35796;DHT22;21916;52.428;13.302;2022-10-31T02:39:02;11.10;99.90
35796;DHT22;21916;52.428;13.302;2022-10-31T02:46:55;11.10;99.90
35796;DHT22;21916;52.428;13.302;2022-10-31T02:49:33;11.10;99.90
35796;DHT22;21916;52.428;13.302;2022-10-31T02:52:02;11.10;99.90
35796;DHT22;21916;52.428;13.302;2022-10-31T02:54:28;11.10;99.90
35796;DHT22;21916;52.428;13.302;2022-10-31T02:57:00;11.00;99.90
35796;DHT22;21916;52.428;13.302;2022-10-31T02:59:28;11.00;99.90
35796;DHT22;21916;52.428;13.302;2022-10-31T03:02:07;11.00;99.90
35796;DHT22;21916;52.428;13.302;2022-10-31T03:05:05;11.00;99.90
35796;DHT22;21916;52.428;13.302;2022-10-31T03:10:24;11.00;99.90
35796;DHT22;21916;52.428;13.302;2022-10-31T03:15:51;10.90;99.90
35796;DHT22;21916;52.428;13.302;2022-10-31T03:18:40;10.80;99.90
35796;DHT22;21916;52.428;13.302;2022-10-31T03:21:16;10.70;99.90
35796;DHT22;21916;52.428;13.302;2022-10-31T03:23:45;10.70;99.90
35796;DHT22;21916;52.428;13.302;2022-10-31T03:26:20;10.80;99.90
35796;DHT22;21916;52.428;13.302;2022-10-31T03:28:53;10.70;99.90
35796;DHT22;21916;52.428;13.302;2022-10-31T03:31:25;10.70;99.90
35796;DHT22;21916;52.428;13.302;2022-10-31T03:33:52;10.60;99.90
35796;DHT22;21916;52.428;13.302;2022-10-31T03:36:20;10.60;99.90
35796;DHT22;21916;52.428;13.302;2022-10-31T03:38:47;10.70;99.90
35796;DHT22;21916;52.428;13.302;2022-10-31T03:41:21;10.60;99.90
35796;DHT22;21916;52.428;13.302;2022-10-31T03:43:53;10.70;99.90
35796;DHT22;21916;52.428;13.302;2022-10-31T03:46:20;10.80;99.90
35796;DHT22;21916;52.428;13.302;2022-10-31T03:48:47;10.70;99.90
35796;DHT22;21916;52.428;13.302;2022-10-31T03:57:00;10.70;99.90
35796;DHT22;21916;52.428;13.302;2022-10-31T03:59:41;10.60;99.90
35796;DHT22;21916;52.428;13.302;2022-10-31T04:02:12;10.60;99.90
35796;DHT22;21916;52.428;13.302;2022-10-31T04:04:40;10.50;99.90
35796;DHT22;21916;52.428;13.302;2022-10-31T04:07:07;10.50;99.90
35796;DHT22;21916;52.428;13.302;2022-10-31T04:09:36;10.50;99.90
35796;DHT22;21916;52.428;13.302;2022-10-31T04:12:04;10.50;99.90
35796;DHT22;21916;52.428;13.302;2022-10-31T04:14:41;10.50;99.90
35796;DHT22;21916;52.428;13.302;2022-10-31T04:17:19;10.50;99.90
35796;DHT22;21916;52.428;13.302;2022-10-31T04:19:49;10.50;99.90
35796;DHT22;21916;52.428;13.302;2022-10-31T04:22:15;10.50;99.90
35796;DHT22;21916;52.428;13.302;2022-10-31T04:24:41;10.50;99.90
35796;DHT22;21916;52.428;13.302;2022-10-31T04:27:09;10.40;99.90
35796;DHT22;21916;52.428;13.302;2022-10-31T04:29:35;10.50;99.90
35796;DHT22;21916;52.428;13.302;2022-10-31T04:32:01;10.50;99.90
35796;DHT22;21916;52.428;13.302;2022-10-31T04:34:27;10.50;99.90
35796;DHT22;21916;52.428;13.302;2022-10-31T04:36:53;10.50;99.90
35796;DHT22;21916;52.428;13.302;2022-10-31T04:39:18;10.50;99.90
35796;DHT22;21916;52.428;13.302;2022-10-31T04:41:50;10.40;99.90
35796;DHT22;21916;52.428;13.302;2022-10-31T04:44:19;10.40;99.90
35796;DHT22;21916;52.428;13.302;2022-10-31T04:46:49;10.40;99.90
35796;DHT22;21916;52.428;13.302;2022-10-31T04:49:14;10.40;99.90
35796;DHT22;21916;52.428;13.302;2022-10-31T04:51:40;10.40;99.90
35796;DHT22;21916;52.428;13.302;2022-10-31T04:54:08;10.40;99.90
35796;DHT22;21916;52.428;13.302;2022-10-31T04:56:34;10.40;99.90
35796;DHT22;21916;52.428;13.302;2022-10-31T04:59:04;10.40;99.90
35796;DHT22;21916;52.428;13.302;2022-10-31T05:01:43;10.40;99.90
35796;DHT22;21916;52.428;13.302;2022-10-31T05:04:10;10.40;99.90
35796;DHT22;21916;52.428;13.302;2022-10-31T05:06:37;10.50;99.90
35796;DHT22;21916;52.428;13.302;2022-10-31T05:09:03;10.40;99.90
35796;DHT22;21916;52.428;13.302;2022-10-31T05:11:30;10.40;99.90
35796;DHT22;21916;52.428;13.302;2022-10-31T05:14:05;10.40;99.90
35796;DHT22;21916;52.428;13.302;2022-10-31T05:16:50;10.30;99.90
35796;DHT22;21916;52.428;13.302;2022-10-31T05:19:34;10.30;99.90
35796;DHT22;21916;52.428;13.302;2022-10-31T05:22:32;10.30;99.90
35796;DHT22;21916;52.428;13.302;2022-10-31T05:24:58;10.30;99.90
35796;DHT22;21916;52.428;13.302;2022-10-31T05:27:24;10.30;99.90
35796;DHT22;21916;52.428;13.302;2022-10-31T05:29:51;10.30;99.90
35796;DHT22;21916;52.428;13.302;2022-10-31T05:32:17;10.20;99.90
35796;DHT22;21916;52.428;13.302;2022-10-31T05:35:03;10.20;99.90
35796;DHT22;21916;52.428;13.302;2022-10-31T05:37:49;10.20;99.90
35796;DHT22;21916;52.428;13.302;2022-10-31T05:40:16;10.20;99.90
35796;DHT22;21916;52.428;13.302;2022-10-31T05:42:43;10.30;99.90
35796;DHT22;21916;52.428;13.302;2022-10-31T05:45:15;10.40;99.90
35796;DHT22;21916;52.428;13.302;2022-10-31T05:48:00;10.50;99.90
35796;DHT22;21916;52.428;13.302;2022-10-31T05:50:52;10.40;99.90
35796;DHT22;21916;52.428;13.302;2022-10-31T05:53:19;10.40;99.90
35796;DHT22;21916;52.428;13.302;2022-10-31T05:55:44;10.40;99.90
35796;DHT22;21916;52.428;13.302;2022-10-31T05:58:21;10.30;99.90
35796;DHT22;21916;52.428;13.302;2022-10-31T06:01:03;10.30;99.90
35796;DHT22;21916;52.428;13.302;2022-10-31T06:03:29;10.30;99.90
35796;DHT22;21916;52.428;13.302;2022-10-31T06:05:57;10.30;99.90
35796;DHT22;21916;52.428;13.302;2022-10-31T06:08:32;10.30;99.90
35796;DHT22;21916;52.428;13.302;2022-10-31T06:11:02;10.40;99.90
35796;DHT22;21916;52.428;13.302;2022-10-31T06:13:46;10.40;99.90
35796;DHT22;21916;52.428;13.302;2022-10-31T06:16:19;10.40;99.90
35796;DHT22;21916;52.428;13.302;2022-10-31T06:18:46;10.40;99.90
35796;DHT22;21916;52.428;13.302;2022-10-31T06:21:12;10.50;99.90
35796;DHT22;21916;52.428;13.302;2022-10-31T06:23:38;10.50;99.90
35796;DHT22;21916;52.428;13.302;2022-10-31T06:26:35;10.60;99.90
35796;DHT22;21916;52.428;13.302;2022-10-31T06:29:02;10.60;99.90
35796;DHT22;21916;52.428;13.302;2022-10-31T06:31:51;10.70;99.90
35796;DHT22;21916;52.428;13.302;2022-10-31T06:34:17;10.70;99.90
35796;DHT22;21916;52.428;13.302;2022-10-31T06:36:46;10.80;99.90
35796;DHT22;21916;52.428;13.302;2022-10-31T06:39:12;10.90;99.90
35796;DHT22;21916;52.428;13.302;2022-10-31T06:41:38;10.80;99.90
35796;DHT22;21916;52.428;13.302;2022-10-31T06:44:06;10.90;99.90
35796;DHT22;21916;52.428;13.302;2022-10-31T06:47:11;10.90;99.90
35796;DHT22;21916;52.428;13.302;2022-10-31T06:49:55;10.90;99.90
35796;DHT22;21916;52.428;13.302;2022-10-31T06:52:23;11.00;99.90
35796;DHT22;21916;52.428;13.302;2022-10-31T06:54:50;11.00;99.90
35796;DHT22;21916;52.428;13.302;2022-10-31T06:57:16;11.10;99.90
35796;DHT22;21916;52.428;13.302;2022-10-31T06:59:43;11.20;99.90
35796;DHT22;21916;52.428;13.302;2022-10-31T07:02:27;11.30;99.90
35796;DHT22;21916;52.428;13.302;2022-10-31T07:04:53;11.40;99.90
35796;DHT22;21916;52.428;13.302;2022-10-31T07:07:19;11.50;99.90
35796;DHT22;21916;52.428;13.302;2022-10-31T07:09:48;11.50;99.90
35796;DHT22;21916;52.428;13.302;2022-10-31T07:12:16;11.60;99.90
35796;DHT22;21916;52.428;13.302;2022-10-31T07:14:50;11.70;99.90
35796;DHT22;21916;52.428;13.302;2022-10-31T07:17:16;11.90;99.90
35796;DHT22;21916;52.428;13.302;2022-10-31T07:19:43;12.00;99.90
35796;DHT22;21916;52.428;13.302;2022-10-31T07:22:11;12.20;99.90
35796;DHT22;21916;52.428;13.302;2022-10-31T07:24:39;12.30;99.90
35796;DHT22;21916;52.428;13.302;2022-10-31T07:27:23;12.40;99.90
35796;DHT22;21916;52.428;13.302;2022-10-31T07:29:49;12.50;99.90
35796;DHT22;21916;52.428;13.302;2022-10-31T07:32:18;12.60;99.90
35796;DHT22;21916;52.428;13.302;2022-10-31T07:34:51;12.70;99.90
35796;DHT22;21916;52.428;13.302;2022-10-31T07:37:37;12.90;99.90
35796;DHT22;21916;52.428;13.302;2022-10-31T07:40:06;13.00;99.90
35796;DHT22;21916;52.428;13.302;2022-10-31T07:42:37;13.00;99.90
35796;DHT22;21916;52.428;13.302;2022-10-31T07:45:05;13.20;99.90
35796;DHT22;21916;52.428;13.302;2022-10-31T07:47:52;13.30;99.90
35796;DHT22;21916;52.428;13.302;2022-10-31T07:50:41;13.40;99.90
35796;DHT22;21916;52.428;13.302;2022-10-31T07:53:33;13.60;99.90
35796;DHT22;21916;52.428;13.302;2022-10-31T07:56:10;13.70;99.90
35796;DHT22;21916;52.428;13.302;2022-10-31T07:58:35;13.80;99.90
35796;DHT22;21916;52.428;13.302;2022-10-31T08:01:01;13.90;99.90
35796;DHT22;21916;52.428;13.302;2022-10-31T08:03:37;13.80;99.90
35796;DHT22;21916;52.428;13.302;2022-10-31T08:06:09;13.80;99.90
35796;DHT22;21916;52.428;13.302;2022-10-31T08:08:44;13.80;99.90
35796;DHT22;21916;52.428;13.302;2022-10-31T08:11:09;13.70;99.90
35796;DHT22;21916;52.428;13.302;2022-10-31T08:13:37;13.80;99.90
35796;DHT22;21916;52.428;13.302;2022-10-31T08:16:03;13.90;99.90
35796;DHT22;21916;52.428;13.302;2022-10-31T08:18:32;13.80;99.90
35796;DHT22;21916;52.428;13.302;2022-10-31T08:20:58;13.90;99.90
35796;DHT22;21916;52.428;13.302;2022-10-31T08:23:24;13.80;99.90
35796;DHT22;21916;52.428;13.302;2022-10-31T08:25:52;13.80;99.90
35796;DHT22;21916;52.428;13.302;2022-10-31T08:28:18;13.80;99.90
35796;DHT22;21916;52.428;13.302;2022-10-31T08:30:48;13.80;99.90
35796;DHT22;21916;52.428;13.302;2022-10-31T08:33:32;13.80;99.90
35796;DHT22;21916;52.428;13.302;2022-10-31T08:36:17;13.90;99.90
35796;DHT22;21916;52.428;13.302;2022-10-31T08:38:51;14.10;99.90
35796;DHT22;21916;52.428;13.302;2022-10-31T08:41:17;14.20;99.90
35796;DHT22;21916;52.428;13.302;2022-10-31T08:43:43;14.20;99.90
35796;DHT22;21916;52.428;13.302;2022-10-31T08:46:11;14.40;99.90
35796;DHT22;21916;52.428;13.302;2022-10-31T08:48:39;14.60;99.90
35796;DHT22;21916;52.428;13.302;2022-10-31T08:51:05;14.70;99.90
35796;DHT22;21916;52.428;13.302;2022-10-31T08:53:31;14.60;99.90
35796;DHT22;21916;52.428;13.302;2022-10-31T08:56:26;14.60;99.90
35796;DHT22;21916;52.428;13.302;2022-10-31T08:58:53;14.60;99.90
35796;DHT22;21916;52.428;13.302;2022-10-31T09:01:27;14.70;99.90
35796;DHT22;21916;52.428;13.302;2022-10-31T09:03:53;14.60;99.90
35796;DHT22;21916;52.428;13.302;2022-10-31T09:06:19;14.70;99.90
35796;DHT22;21916;52.428;13.302;2022-10-31T09:08:47;14.90;99.90
35796;DHT22;21916;52.428;13.302;2022-10-31T09:11:13;14.90;99.90
35796;DHT22;21916;52.428;13.302;2022-10-31T09:13:58;15.00;99.90
35796;DHT22;21916;52.428;13.302;2022-10-31T09:16:47;15.00;99.90
35796;DHT22;21916;52.428;13.302;2022-10-31T09:19:19;14.90;99.90
35796;DHT22;21916;52.428;13.302;2022-10-31T09:21:46;14.90;99.90
35796;DHT22;21916;52.428;13.302;2022-10-31T09:24:12;14.90;99.90
35796;DHT22;21916;52.428;13.302;2022-10-31T09:26:40;14.80;99.90
35796;DHT22;21916;52.428;13.302;2022-10-31T09:29:26;14.90;99.90
35796;DHT22;21916;52.428;13.302;2022-10-31T09:31:56;15.00;99.90
35796;DHT22;21916;52.428;13.302;2022-10-31T09:34:27;15.20;99.90
35796;DHT22;21916;52.428;13.302;2022-10-31T09:37:04;15.30;99.90
35796;DHT22;21916;52.428;13.302;2022-10-31T09:39:33;15.40;99.90
35796;DHT22;21916;52.428;13.302;2022-10-31T09:45:32;16.00;99.90
35796;DHT22;21916;52.428;13.302;2022-10-31T09:51:39;15.60;99.90
35796;DHT22;21916;52.428;13.302;2022-10-31T09:57:35;15.50;99.90
35796;DHT22;21916;52.428;13.302;2022-10-31T10:00:04;15.40;99.90
35796;DHT22;21916;52.428;13.302;2022-10-31T10:02:44;15.60;99.90
35796;DHT22;21916;52.428;13.302;2022-10-31T10:05:22;15.90;99.90
35796;DHT22;21916;52.428;13.302;2022-10-31T10:17:40;17.70;99.90
35796;DHT22;21916;52.428;13.302;2022-10-31T10:22:26;18.10;99.90
35796;DHT22;21916;52.428;13.302;2022-10-31T10:30:33;18.50;99.90
35796;DHT22;21916;52.428;13.302;2022-10-31T10:33:05;18.80;99.90
35796;DHT22;21916;52.428;13.302;2022-10-31T10:35:34;18.90;99.90
35796;DHT22;21916;52.428;13.302;2022-10-31T10:40:48;20.30;99.90
35796;DHT22;21916;52.428;13.302;2022-10-31T10:45:57;20.50;99.90
35796;DHT22;21916;52.428;13.302;2022-10-31T10:51:22;22.60;99.90
35796;DHT22;21916;52.428;13.302;2022-10-31T10:54:14;23.40;99.90
35796;DHT22;21916;52.428;13.302;2022-10-31T11:00:22;25.10;99.90
35796;DHT22;21916;52.428;13.302;2022-10-31T11:02:48;26.60;99.60
35796;DHT22;21916;52.428;13.302;2022-10-31T11:08:34;28.20;96.90
35796;DHT22;21916;52.428;13.302;2022-10-31T11:11:23;28.20;96.00
35796;DHT22;21916;52.428;13.302;2022-10-31T11:13:57;27.90;96.00
35796;DHT22;21916;52.428;13.302;2022-10-31T11:18:52;28.50;95.30
35796;DHT22;21916;52.428;13.302;2022-10-31T11:21:30;29.20;94.40
35796;DHT22;21916;52.428;13.302;2022-10-31T11:26:36;29.10;93.80
35796;DHT22;21916;52.428;13.302;2022-10-31T11:29:04;29.40;93.30
35796;DHT22;21916;52.428;13.302;2022-10-31T11:31:32;29.70;92.90
35796;DHT22;21916;52.428;13.302;2022-10-31T11:34:03;30.40;92.60
35796;DHT22;21916;52.428;13.302;2022-10-31T11:36:34;30.50;91.60
35796;DHT22;21916;52.428;13.302;2022-10-31T11:39:03;30.40;91.40
35796;DHT22;21916;52.428;13.302;2022-10-31T11:41:35;30.40;91.40
35796;DHT22;21916;52.428;13.302;2022-10-31T11:46:41;32.00;88.80
35796;DHT22;21916;52.428;13.302;2022-10-31T11:51:55;29.90;90.10
35796;DHT22;21916;52.428;13.302;2022-10-31T11:57:33;28.90;91.40
35796;DHT22;21916;52.428;13.302;2022-10-31T12:00:24;29.30;91.50
35796;DHT22;21916;52.428;13.302;2022-10-31T12:06:08;29.80;90.70
35796;DHT22;21916;52.428;13.302;2022-10-31T12:08:38;28.70;91.30
35796;DHT22;21916;52.428;13.302;2022-10-31T12:16:38;29.60;90.90
35796;DHT22;21916;52.428;13.302;2022-10-31T12:22:17;27.60;92.70
35796;DHT22;21916;52.428;13.302;2022-10-31T12:36:56;29.10;91.50
35796;DHT22;21916;52.428;13.302;2022-10-31T12:39:31;29.70;90.80
35796;DHT22;21916;52.428;13.302;2022-10-31T12:42:33;29.90;90.60
35796;DHT22;21916;52.428;13.302;2022-10-31T12:51:05;29.90;90.50
35796;DHT22;21916;52.428;13.302;2022-10-31T12:53:47;30.50;90.30
35796;DHT22;21916;52.428;13.302;2022-10-31T12:59:01;31.10;88.60
35796;DHT22;21916;52.428;13.302;2022-10-31T13:01:35;29.80;89.90
35796;DHT22;21916;52.428;13.302;2022-10-31T13:04:19;29.90;89.90
35796;DHT22;21916;52.428;13.302;2022-10-31T13:06:53;29.50;90.30
35796;DHT22;21916;52.428;13.302;2022-10-31T13:09:33;29.20;90.60
35796;DHT22;21916;52.428;13.302;2022-10-31T13:12:13;29.40;90.60
35796;DHT22;21916;52.428;13.302;2022-10-31T13:14:55;29.60;90.70
35796;DHT22;21916;52.428;13.302;2022-10-31T13:17:30;29.20;90.80
35796;DHT22;21916;52.428;13.302;2022-10-31T13:20:23;29.80;90.50
35796;DHT22;21916;52.428;13.302;2022-10-31T13:22:53;30.10;90.00
35796;DHT22;21916;52.428;13.302;2022-10-31T13:25:25;29.70;90.30
35796;DHT22;21916;52.428;13.302;2022-10-31T13:28:01;29.00;90.80
35796;DHT22;21916;52.428;13.302;2022-10-31T13:30:38;28.70;91.20
35796;DHT22;21916;52.428;13.302;2022-10-31T13:38:42;28.20;91.80
35796;DHT22;21916;52.428;13.302;2022-10-31T13:46:41;27.10;92.90
35796;DHT22;21916;52.428;13.302;2022-10-31T13:52:24;25.90;94.30
35796;DHT22;21916;52.428;13.302;2022-10-31T13:54:52;25.10;95.60
35796;DHT22;21916;52.428;13.302;2022-10-31T13:57:31;24.90;96.00
35796;DHT22;21916;52.428;13.302;2022-10-31T14:00:23;24.70;96.60
35796;DHT22;21916;52.428;13.302;2022-10-31T14:02:52;23.80;97.90
35796;DHT22;21916;52.428;13.302;2022-10-31T14:05:33;22.90;99.90
35796;DHT22;21916;52.428;13.302;2022-10-31T14:08:02;22.10;99.90
35796;DHT22;21916;52.428;13.302;2022-10-31T14:10:46;21.20;99.90
35796;DHT22;21916;52.428;13.302;2022-10-31T14:13:22;20.70;99.90
35796;DHT22;21916;52.428;13.302;2022-10-31T14:15:59;20.50;99.90
35796;DHT22;21916;52.428;13.302;2022-10-31T14:18:35;20.30;99.90
35796;DHT22;21916;52.428;13.302;2022-10-31T14:23:51;19.70;99.90
35796;DHT22;21916;52.428;13.302;2022-10-31T14:28:54;18.60;99.90
35796;DHT22;21916;52.428;13.302;2022-10-31T14:31:42;18.30;99.90
35796;DHT22;21916;52.428;13.302;2022-10-31T14:39:44;17.60;99.90
35796;DHT22;21916;52.428;13.302;2022-10-31T14:43:11;17.50;99.90
35796;DHT22;21916;52.428;13.302;2022-10-31T14:51:02;17.20;99.90
35796;DHT22;21916;52.428;13.302;2022-10-31T14:53:45;17.00;99.90
35796;DHT22;21916;52.428;13.302;2022-10-31T14:56:13;16.80;99.90
35796;DHT22;21916;52.428;13.302;2022-10-31T14:58:44;16.80;99.90
35796;DHT22;21916;52.428;13.302;2022-10-31T15:01:38;16.60;99.90
35796;DHT22;21916;52.428;13.302;2022-10-31T15:04:26;16.60;99.90
35796;DHT22;21916;52.428;13.302;2022-10-31T15:07:09;16.60;99.90
35796;DHT22;21916;52.428;13.302;2022-10-31T15:09:37;16.40;99.90
35796;DHT22;21916;52.428;13.302;2022-10-31T15:12:30;16.30;99.90
35796;DHT22;21916;52.428;13.302;2022-10-31T15:14:56;16.20;99.90
35796;DHT22;21916;52.428;13.302;2022-10-31T15:17:25;15.90;99.90
35796;DHT22;21916;52.428;13.302;2022-10-31T15:19:52;15.70;99.90
35796;DHT22;21916;52.428;13.302;2022-10-31T15:22:22;15.60;99.90
35796;DHT22;21916;52.428;13.302;2022-10-31T15:24:49;15.60;99.90
35796;DHT22;21916;52.428;13.302;2022-10-31T15:27:22;15.50;99.90
35796;DHT22;21916;52.428;13.302;2022-10-31T15:29:49;15.40;99.90
35796;DHT22;21916;52.428;13.302;2022-10-31T15:32:27;15.20;99.90
35796;DHT22;21916;52.428;13.302;2022-10-31T15:34:56;15.00;99.90
35796;DHT22;21916;52.428;13.302;2022-10-31T15:37:25;14.90;99.90
35796;DHT22;21916;52.428;13.302;2022-10-31T15:39:51;14.90;99.90
35796;DHT22;21916;52.428;13.302;2022-10-31T15:45:04;14.90;99.90
35796;DHT22;21916;52.428;13.302;2022-10-31T15:47:32;14.90;99.90
35796;DHT22;21916;52.428;13.302;2022-10-31T15:49:59;14.80;99.90
35796;DHT22;21916;52.428;13.302;2022-10-31T15:52:46;14.70;99.90
35796;DHT22;21916;52.428;13.302;2022-10-31T15:55:20;14.60;99.90
35796;DHT22;21916;52.428;13.302;2022-10-31T15:57:49;14.50;99.90
35796;DHT22;21916;52.428;13.302;2022-10-31T16:05:53;14.40;99.90
35796;DHT22;21916;52.428;13.302;2022-10-31T16:10:51;14.10;99.90
35796;DHT22;21916;52.428;13.302;2022-10-31T16:13:19;14.10;99.90
35796;DHT22;21916;52.428;13.302;2022-10-31T16:16:00;14.00;99.90
35796;DHT22;21916;52.428;13.302;2022-10-31T16:18:28;14.00;99.90
35796;DHT22;21916;52.428;13.302;2022-10-31T16:20:55;14.10;99.90
35796;DHT22;21916;52.428;13.302;2022-10-31T16:23:24;14.10;99.90
35796;DHT22;21916;52.428;13.302;2022-10-31T16:25:51;14.20;99.90
35796;DHT22;21916;52.428;13.302;2022-10-31T16:28:27;14.10;99.90
35796;DHT22;21916;52.428;13.302;2022-10-31T16:30:56;14.20;99.90
35796;DHT22;21916;52.428;13.302;2022-10-31T16:35:58;14.30;99.90
35796;DHT22;21916;52.428;13.302;2022-10-31T16:38:24;14.30;99.90
35796;DHT22;21916;52.428;13.302;2022-10-31T16:40:51;14.30;99.90
35796;DHT22;21916;52.428;13.302;2022-10-31T16:43:19;14.40;99.90
35796;DHT22;21916;52.428;13.302;2022-10-31T16:45:50;14.20;99.90
35796;DHT22;21916;52.428;13.302;2022-10-31T16:48:21;14.30;99.90
35796;DHT22;21916;52.428;13.302;2022-10-31T16:50:49;14.30;99.90
35796;DHT22;21916;52.428;13.302;2022-10-31T16:53:16;14.40;99.90
35796;DHT22;21916;52.428;13.302;2022-10-31T16:56:03;14.50;99.90
35796;DHT22;21916;52.428;13.302;2022-10-31T16:58:31;14.50;99.90
35796;DHT22;21916;52.428;13.302;2022-10-31T17:00:59;14.50;99.90
35796;DHT22;21916;52.428;13.302;2022-10-31T17:03:25;14.50;99.90
35796;DHT22;21916;52.428;13.302;2022-10-31T17:05:51;14.50;99.90
35796;DHT22;21916;52.428;13.302;2022-10-31T17:08:17;14.50;99.90
35796;DHT22;21916;52.428;13.302;2022-10-31T17:10:44;14.50;99.90
35796;DHT22;21916;52.428;13.302;2022-10-31T17:13:15;14.60;99.90
35796;DHT22;21916;52.428;13.302;2022-10-31T17:15:45;14.60;99.90
35796;DHT22;21916;52.428;13.302;2022-10-31T17:18:13;14.60;99.90
35796;DHT22;21916;52.428;13.302;2022-10-31T17:20:39;14.60;99.90
35796;DHT22;21916;52.428;13.302;2022-10-31T17:23:08;14.50;99.90
35796;DHT22;21916;52.428;13.302;2022-10-31T17:25:34;14.50;99.90
35796;DHT22;21916;52.428;13.302;2022-10-31T17:28:00;14.50;99.90
35796;DHT22;21916;52.428;13.302;2022-10-31T17:30:29;14.40;99.90
35796;DHT22;21916;52.428;13.302;2022-10-31T17:32:54;14.40;99.90
35796;DHT22;21916;52.428;13.302;2022-10-31T17:35:21;14.40;99.90
35796;DHT22;21916;52.428;13.302;2022-10-31T17:37:49;14.40;99.90
35796;DHT22;21916;52.428;13.302;2022-10-31T17:40:19;14.40;99.90
35796;DHT22;21916;52.428;13.302;2022-10-31T17:42:55;14.30;99.90
35796;DHT22;21916;52.428;13.302;2022-10-31T17:45:23;14.30;99.90
35796;DHT22;21916;52.428;13.302;2022-10-31T17:47:52;14.30;99.90
35796;DHT22;21916;52.428;13.302;2022-10-31T17:50:27;14.20;99.90
35796;DHT22;21916;52.428;13.302;2022-10-31T17:52:53;14.20;99.90
35796;DHT22;21916;52.428;13.302;2022-10-31T17:55:19;14.20;99.90
35796;DHT22;21916;52.428;13.302;2022-10-31T17:57:45;14.20;99.90
35796;DHT22;21916;52.428;13.302;2022-10-31T18:00:14;14.10;99.90
35796;DHT22;21916;52.428;13.302;2022-10-31T18:02:43;14.20;99.90
35796;DHT22;21916;52.428;13.302;2022-10-31T18:05:12;14.20;99.90
35796;DHT22;21916;52.428;13.302;2022-10-31T18:07:38;14.20;99.90
35796;DHT22;21916;52.428;13.302;2022-10-31T18:10:05;14.20;99.90
35796;DHT22;21916;52.428;13.302;2022-10-31T18:12:31;14.20;99.90
35796;DHT22;21916;52.428;13.302;2022-10-31T18:14:57;14.10;99.90
35796;DHT22;21916;52.428;13.302;2022-10-31T18:17:23;13.90;99.90
35796;DHT22;21916;52.428;13.302;2022-10-31T18:19:49;13.90;99.90
35796;DHT22;21916;52.428;13.302;2022-10-31T18:22:15;13.90;99.90
35796;DHT22;21916;52.428;13.302;2022-10-31T18:24:41;13.90;99.90
35796;DHT22;21916;52.428;13.302;2022-10-31T18:27:06;13.90;99.90
35796;DHT22;21916;52.428;13.302;2022-10-31T18:29:32;14.00;99.90